sensor_id;sensor_type;location;lat;lon;timestamp;P1;durP1;ratioP1;P2;durP2;ratioP2
18789;SDS011;9523;42.650;23.386;2024-01-30T00:00:48;9.57;;;5.13;;
18789;SDS011;9523;42.650;23.386;2024-01-30T00:03:14;9.03;;;4.83;;
18789;SDS011;9523;42.650;23.386;2024-01-30T00:05:41;7.83;;;5.27;;
18789;SDS011;9523;42.650;23.386;2024-01-30T00:08:08;8.97;;;5.07;;
18789;SDS011;9523;42.650;23.386;2024-01-30T00:10:36;10.80;;;5.50;;
18789;SDS011;9523;42.650;23.386;2024-01-30T00:13:03;10.00;;;5.13;;
18789;SDS011;9523;42.650;23.386;2024-01-30T00:15:29;8.30;;;4.80;;
18789;SDS011;9523;42.650;23.386;2024-01-30T00:17:56;6.93;;;4.20;;
18789;SDS011;9523;42.650;23.386;2024-01-30T00:20:23;10.13;;;5.10;;
18789;SDS011;9523;42.650;23.386;2024-01-30T00:22:49;8.53;;;4.33;;
18789;SDS011;9523;42.650;23.386;2024-01-30T00:25:16;6.60;;;4.33;;
18789;SDS011;9523;42.650;23.386;2024-01-30T00:27:44;9.87;;;4.70;;
18789;SDS011;9523;42.650;23.386;2024-01-30T00:30:11;6.93;;;3.97;;
18789;SDS011;9523;42.650;23.386;2024-01-30T00:32:38;5.00;;;3.87;;
18789;SDS011;9523;42.650;23.386;2024-01-30T00:35:05;7.07;;;4.40;;
18789;SDS011;9523;42.650;23.386;2024-01-30T00:37:32;8.93;;;4.90;;
18789;SDS011;9523;42.650;23.386;2024-01-30T00:39:59;7.47;;;4.10;;
18789;SDS011;9523;42.650;23.386;2024-01-30T00:42:25;7.17;;;4.30;;
18789;SDS011;9523;42.650;23.386;2024-01-30T00:44:53;7.57;;;4.53;;
18789;SDS011;9523;42.650;23.386;2024-01-30T00:47:20;7.70;;;3.87;;
18789;SDS011;9523;42.650;23.386;2024-01-30T00:49:47;6.47;;;3.90;;
18789;SDS011;9523;42.650;23.386;2024-01-30T00:52:13;7.77;;;4.30;;
18789;SDS011;9523;42.650;23.386;2024-01-30T00:54:41;8.03;;;4.03;;
18789;SDS011;9523;42.650;23.386;2024-01-30T00:57:08;5.27;;;3.47;;
18789;SDS011;9523;42.650;23.386;2024-01-30T00:59:34;8.80;;;4.50;;
18789;SDS011;9523;42.650;23.386;2024-01-30T01:02:03;7.37;;;4.00;;
18789;SDS011;9523;42.650;23.386;2024-01-30T01:04:29;7.73;;;4.20;;
18789;SDS011;9523;42.650;23.386;2024-01-30T01:06:56;6.57;;;3.90;;
18789;SDS011;9523;42.650;23.386;2024-01-30T01:09:23;7.13;;;4.07;;
18789;SDS011;9523;42.650;23.386;2024-01-30T01:11:49;9.27;;;4.83;;
18789;SDS011;9523;42.650;23.386;2024-01-30T01:14:16;7.53;;;4.23;;
18789;SDS011;9523;42.650;23.386;2024-01-30T01:16:43;9.13;;;4.60;;
18789;SDS011;9523;42.650;23.386;2024-01-30T01:19:11;9.20;;;4.90;;
18789;SDS011;9523;42.650;23.386;2024-01-30T01:21:38;9.50;;;4.80;;
18789;SDS011;9523;42.650;23.386;2024-01-30T01:24:04;8.50;;;4.33;;
18789;SDS011;9523;42.650;23.386;2024-01-30T01:26:31;9.80;;;4.50;;
18789;SDS011;9523;42.650;23.386;2024-01-30T01:28:58;7.43;;;4.47;;
18789;SDS011;9523;42.650;23.386;2024-01-30T01:31:24;7.90;;;4.70;;
18789;SDS011;9523;42.650;23.386;2024-01-30T01:33:54;8.77;;;4.30;;
18789;SDS011;9523;42.650;23.386;2024-01-30T01:36:22;7.63;;;4.30;;
18789;SDS011;9523;42.650;23.386;2024-01-30T01:38:49;9.97;;;5.03;;
18789;SDS011;9523;42.650;23.386;2024-01-30T01:41:16;8.03;;;4.90;;
18789;SDS011;9523;42.650;23.386;2024-01-30T01:43:43;8.60;;;5.07;;
18789;SDS011;9523;42.650;23.386;2024-01-30T01:46:10;9.10;;;4.73;;
18789;SDS011;9523;42.650;23.386;2024-01-30T01:48:37;7.83;;;4.50;;
18789;SDS011;9523;42.650;23.386;2024-01-30T01:51:05;7.40;;;4.33;;
18789;SDS011;9523;42.650;23.386;2024-01-30T01:53:33;9.50;;;5.40;;
18789;SDS011;9523;42.650;23.386;2024-01-30T01:56:00;8.20;;;4.67;;
18789;SDS011;9523;42.650;23.386;2024-01-30T01:58:27;8.40;;;4.40;;
18789;SDS011;9523;42.650;23.386;2024-01-30T02:00:55;7.13;;;3.90;;
18789;SDS011;9523;42.650;23.386;2024-01-30T02:03:22;6.73;;;4.17;;
18789;SDS011;9523;42.650;23.386;2024-01-30T02:05:49;5.30;;;3.47;;
18789;SDS011;9523;42.650;23.386;2024-01-30T02:08:16;8.80;;;4.20;;
18789;SDS011;9523;42.650;23.386;2024-01-30T02:10:44;8.03;;;4.53;;
18789;SDS011;9523;42.650;23.386;2024-01-30T02:13:11;6.87;;;3.80;;
18789;SDS011;9523;42.650;23.386;2024-01-30T02:15:41;8.70;;;4.23;;
18789;SDS011;9523;42.650;23.386;2024-01-30T02:18:08;8.30;;;4.00;;
18789;SDS011;9523;42.650;23.386;2024-01-30T02:20:35;7.13;;;3.93;;
18789;SDS011;9523;42.650;23.386;2024-01-30T02:23:03;6.37;;;4.07;;
18789;SDS011;9523;42.650;23.386;2024-01-30T02:25:30;7.63;;;3.97;;
18789;SDS011;9523;42.650;23.386;2024-01-30T02:27:57;7.70;;;3.80;;
18789;SDS011;9523;42.650;23.386;2024-01-30T02:30:24;6.83;;;3.97;;
18789;SDS011;9523;42.650;23.386;2024-01-30T02:32:51;7.83;;;3.90;;
18789;SDS011;9523;42.650;23.386;2024-01-30T02:35:17;6.00;;;3.30;;
18789;SDS011;9523;42.650;23.386;2024-01-30T02:37:44;7.43;;;3.33;;
18789;SDS011;9523;42.650;23.386;2024-01-30T02:40:12;7.07;;;3.67;;
18789;SDS011;9523;42.650;23.386;2024-01-30T02:42:41;6.07;;;3.50;;
18789;SDS011;9523;42.650;23.386;2024-01-30T02:45:09;4.90;;;3.50;;
18789;SDS011;9523;42.650;23.386;2024-01-30T02:47:36;7.07;;;3.53;;
18789;SDS011;9523;42.650;23.386;2024-01-30T02:50:03;7.13;;;3.77;;
18789;SDS011;9523;42.650;23.386;2024-01-30T02:52:30;7.67;;;3.40;;
18789;SDS011;9523;42.650;23.386;2024-01-30T02:54:56;7.47;;;3.70;;
18789;SDS011;9523;42.650;23.386;2024-01-30T02:57:24;7.00;;;3.50;;
18789;SDS011;9523;42.650;23.386;2024-01-30T02:59:51;5.30;;;3.07;;
18789;SDS011;9523;42.650;23.386;2024-01-30T03:02:18;6.83;;;2.90;;
18789;SDS011;9523;42.650;23.386;2024-01-30T03:04:45;7.90;;;3.80;;
18789;SDS011;9523;42.650;23.386;2024-01-30T03:07:12;5.33;;;3.20;;
18789;SDS011;9523;42.650;23.386;2024-01-30T03:09:38;7.60;;;3.60;;
18789;SDS011;9523;42.650;23.386;2024-01-30T03:12:05;7.97;;;3.10;;
18789;SDS011;9523;42.650;23.386;2024-01-30T03:14:33;4.87;;;3.03;;
18789;SDS011;9523;42.650;23.386;2024-01-30T03:17:00;5.20;;;3.10;;
18789;SDS011;9523;42.650;23.386;2024-01-30T03:19:27;6.30;;;3.00;;
18789;SDS011;9523;42.650;23.386;2024-01-30T03:21:54;7.73;;;3.20;;
18789;SDS011;9523;42.650;23.386;2024-01-30T03:24:21;5.27;;;3.10;;
18789;SDS011;9523;42.650;23.386;2024-01-30T03:26:48;6.33;;;3.03;;
18789;SDS011;9523;42.650;23.386;2024-01-30T03:29:14;7.03;;;2.93;;
18789;SDS011;9523;42.650;23.386;2024-01-30T03:31:43;5.90;;;2.83;;
18789;SDS011;9523;42.650;23.386;2024-01-30T03:34:10;5.27;;;2.73;;
18789;SDS011;9523;42.650;23.386;2024-01-30T03:36:36;5.40;;;2.53;;
18789;SDS011;9523;42.650;23.386;2024-01-30T03:39:03;4.10;;;2.70;;
18789;SDS011;9523;42.650;23.386;2024-01-30T03:41:30;4.13;;;2.30;;
18789;SDS011;9523;42.650;23.386;2024-01-30T03:43:56;5.03;;;2.50;;
18789;SDS011;9523;42.650;23.386;2024-01-30T03:46:23;3.47;;;2.23;;
18789;SDS011;9523;42.650;23.386;2024-01-30T03:48:51;6.67;;;2.37;;
18789;SDS011;9523;42.650;23.386;2024-01-30T03:51:18;6.83;;;2.37;;
18789;SDS011;9523;42.650;23.386;2024-01-30T03:53:45;5.57;;;2.80;;
18789;SDS011;9523;42.650;23.386;2024-01-30T03:56:12;4.83;;;2.57;;
18789;SDS011;9523;42.650;23.386;2024-01-30T03:58:39;5.03;;;2.70;;
18789;SDS011;9523;42.650;23.386;2024-01-30T04:01:06;6.73;;;2.53;;
18789;SDS011;9523;42.650;23.386;2024-01-30T04:03:33;8.00;;;2.60;;
18789;SDS011;9523;42.650;23.386;2024-01-30T04:06:01;7.07;;;2.60;;
18789;SDS011;9523;42.650;23.386;2024-01-30T04:08:27;4.00;;;2.93;;
18789;SDS011;9523;42.650;23.386;2024-01-30T04:10:54;4.33;;;2.90;;
18789;SDS011;9523;42.650;23.386;2024-01-30T04:13:21;5.30;;;2.60;;
18789;SDS011;9523;42.650;23.386;2024-01-30T04:15:47;6.50;;;3.03;;
18789;SDS011;9523;42.650;23.386;2024-01-30T04:18:14;4.33;;;2.80;;
18789;SDS011;9523;42.650;23.386;2024-01-30T04:20:41;5.40;;;2.40;;
18789;SDS011;9523;42.650;23.386;2024-01-30T04:23:09;5.63;;;3.00;;
18789;SDS011;9523;42.650;23.386;2024-01-30T04:25:36;5.10;;;2.50;;
18789;SDS011;9523;42.650;23.386;2024-01-30T04:28:03;6.37;;;3.50;;
18789;SDS011;9523;42.650;23.386;2024-01-30T04:30:29;5.67;;;2.80;;
18789;SDS011;9523;42.650;23.386;2024-01-30T04:32:56;5.33;;;3.20;;
18789;SDS011;9523;42.650;23.386;2024-01-30T04:35:23;4.70;;;2.77;;
18789;SDS011;9523;42.650;23.386;2024-01-30T04:37:51;5.30;;;3.17;;
18789;SDS011;9523;42.650;23.386;2024-01-30T04:40:19;6.73;;;3.27;;
18789;SDS011;9523;42.650;23.386;2024-01-30T04:42:46;6.00;;;3.17;;
18789;SDS011;9523;42.650;23.386;2024-01-30T04:45:12;5.97;;;3.43;;
18789;SDS011;9523;42.650;23.386;2024-01-30T04:47:39;5.57;;;3.10;;
18789;SDS011;9523;42.650;23.386;2024-01-30T04:50:07;7.70;;;3.10;;
18789;SDS011;9523;42.650;23.386;2024-01-30T04:52:34;3.80;;;2.90;;
18789;SDS011;9523;42.650;23.386;2024-01-30T04:55:01;6.27;;;3.40;;
18789;SDS011;9523;42.650;23.386;2024-01-30T04:57:29;9.80;;;3.33;;
18789;SDS011;9523;42.650;23.386;2024-01-30T04:59:56;4.90;;;3.10;;
18789;SDS011;9523;42.650;23.386;2024-01-30T05:02:23;6.27;;;3.20;;
18789;SDS011;9523;42.650;23.386;2024-01-30T05:04:49;6.90;;;3.63;;
18789;SDS011;9523;42.650;23.386;2024-01-30T05:07:16;6.77;;;3.30;;
18789;SDS011;9523;42.650;23.386;2024-01-30T05:09:43;7.23;;;3.40;;
18789;SDS011;9523;42.650;23.386;2024-01-30T05:12:10;5.87;;;3.20;;
18789;SDS011;9523;42.650;23.386;2024-01-30T05:14:38;6.63;;;3.57;;
18789;SDS011;9523;42.650;23.386;2024-01-30T05:17:05;7.20;;;3.60;;
18789;SDS011;9523;42.650;23.386;2024-01-30T05:19:33;8.83;;;3.13;;
18789;SDS011;9523;42.650;23.386;2024-01-30T05:21:59;6.27;;;3.37;;
18789;SDS011;9523;42.650;23.386;2024-01-30T05:24:26;6.73;;;3.73;;
18789;SDS011;9523;42.650;23.386;2024-01-30T05:26:53;6.03;;;3.63;;
18789;SDS011;9523;42.650;23.386;2024-01-30T05:29:19;5.57;;;3.47;;
18789;SDS011;9523;42.650;23.386;2024-01-30T05:31:48;6.33;;;3.57;;
18789;SDS011;9523;42.650;23.386;2024-01-30T05:34:14;7.17;;;3.37;;
18789;SDS011;9523;42.650;23.386;2024-01-30T05:36:41;7.53;;;3.60;;
18789;SDS011;9523;42.650;23.386;2024-01-30T05:39:08;4.70;;;3.10;;
18789;SDS011;9523;42.650;23.386;2024-01-30T05:41:35;8.37;;;3.67;;
18789;SDS011;9523;42.650;23.386;2024-01-30T05:44:02;6.73;;;3.87;;
18789;SDS011;9523;42.650;23.386;2024-01-30T05:46:28;7.17;;;3.17;;
18789;SDS011;9523;42.650;23.386;2024-01-30T05:48:57;6.87;;;3.40;;
18789;SDS011;9523;42.650;23.386;2024-01-30T05:51:23;7.73;;;3.67;;
18789;SDS011;9523;42.650;23.386;2024-01-30T05:53:50;10.70;;;4.20;;
18789;SDS011;9523;42.650;23.386;2024-01-30T05:56:17;12.07;;;3.93;;
18789;SDS011;9523;42.650;23.386;2024-01-30T05:58:43;7.23;;;3.73;;
18789;SDS011;9523;42.650;23.386;2024-01-30T06:01:10;10.20;;;4.03;;
18789;SDS011;9523;42.650;23.386;2024-01-30T06:03:37;7.63;;;3.60;;
18789;SDS011;9523;42.650;23.386;2024-01-30T06:06:08;8.80;;;4.27;;
18789;SDS011;9523;42.650;23.386;2024-01-30T06:08:34;7.37;;;4.00;;
18789;SDS011;9523;42.650;23.386;2024-01-30T06:11:01;8.50;;;4.47;;
18789;SDS011;9523;42.650;23.386;2024-01-30T06:13:31;8.40;;;4.67;;
18789;SDS011;9523;42.650;23.386;2024-01-30T06:15:58;12.23;;;4.30;;
18789;SDS011;9523;42.650;23.386;2024-01-30T06:18:24;8.57;;;3.83;;
18789;SDS011;9523;42.650;23.386;2024-01-30T06:20:54;10.33;;;3.83;;
18789;SDS011;9523;42.650;23.386;2024-01-30T06:23:22;9.53;;;3.93;;
18789;SDS011;9523;42.650;23.386;2024-01-30T06:25:49;8.40;;;3.87;;
18789;SDS011;9523;42.650;23.386;2024-01-30T06:28:16;8.13;;;3.93;;
18789;SDS011;9523;42.650;23.386;2024-01-30T06:30:42;4.97;;;3.60;;
18789;SDS011;9523;42.650;23.386;2024-01-30T06:33:11;5.00;;;3.07;;
18789;SDS011;9523;42.650;23.386;2024-01-30T06:35:38;7.27;;;3.50;;
18789;SDS011;9523;42.650;23.386;2024-01-30T06:38:05;6.83;;;3.17;;
18789;SDS011;9523;42.650;23.386;2024-01-30T06:40:33;9.07;;;3.83;;
18789;SDS011;9523;42.650;23.386;2024-01-30T06:43:00;6.43;;;3.33;;
18789;SDS011;9523;42.650;23.386;2024-01-30T06:45:27;4.83;;;2.70;;
18789;SDS011;9523;42.650;23.386;2024-01-30T06:47:53;5.63;;;2.90;;
18789;SDS011;9523;42.650;23.386;2024-01-30T06:50:23;4.13;;;2.37;;
18789;SDS011;9523;42.650;23.386;2024-01-30T06:52:50;6.07;;;3.07;;
18789;SDS011;9523;42.650;23.386;2024-01-30T06:55:17;4.43;;;2.70;;
18789;SDS011;9523;42.650;23.386;2024-01-30T06:57:45;4.20;;;2.33;;
18789;SDS011;9523;42.650;23.386;2024-01-30T07:00:13;5.07;;;2.70;;
18789;SDS011;9523;42.650;23.386;2024-01-30T07:02:40;5.27;;;2.33;;
18789;SDS011;9523;42.650;23.386;2024-01-30T07:05:07;6.97;;;2.33;;
18789;SDS011;9523;42.650;23.386;2024-01-30T07:07:34;4.83;;;2.47;;
18789;SDS011;9523;42.650;23.386;2024-01-30T07:10:00;8.50;;;2.40;;
18789;SDS011;9523;42.650;23.386;2024-01-30T07:12:27;4.27;;;2.57;;
18789;SDS011;9523;42.650;23.386;2024-01-30T07:14:55;6.67;;;2.83;;
18789;SDS011;9523;42.650;23.386;2024-01-30T07:17:24;4.63;;;2.00;;
18789;SDS011;9523;42.650;23.386;2024-01-30T07:19:51;3.60;;;2.20;;
18789;SDS011;9523;42.650;23.386;2024-01-30T07:22:18;4.07;;;2.63;;
18789;SDS011;9523;42.650;23.386;2024-01-30T07:24:44;5.10;;;2.70;;
18789;SDS011;9523;42.650;23.386;2024-01-30T07:27:13;4.60;;;2.10;;
18789;SDS011;9523;42.650;23.386;2024-01-30T07:29:42;5.97;;;2.47;;
18789;SDS011;9523;42.650;23.386;2024-01-30T07:32:10;5.67;;;2.50;;
18789;SDS011;9523;42.650;23.386;2024-01-30T07:34:37;5.13;;;2.13;;
18789;SDS011;9523;42.650;23.386;2024-01-30T07:37:04;3.07;;;1.73;;
18789;SDS011;9523;42.650;23.386;2024-01-30T07:39:33;4.13;;;2.47;;
18789;SDS011;9523;42.650;23.386;2024-01-30T07:42:00;7.50;;;2.70;;
18789;SDS011;9523;42.650;23.386;2024-01-30T07:44:26;3.50;;;2.17;;
18789;SDS011;9523;42.650;23.386;2024-01-30T07:46:53;3.67;;;2.03;;
18789;SDS011;9523;42.650;23.386;2024-01-30T07:49:21;2.50;;;1.80;;
18789;SDS011;9523;42.650;23.386;2024-01-30T07:51:50;3.63;;;2.43;;
18789;SDS011;9523;42.650;23.386;2024-01-30T07:54:17;6.87;;;2.70;;
18789;SDS011;9523;42.650;23.386;2024-01-30T07:56:43;4.43;;;2.40;;
18789;SDS011;9523;42.650;23.386;2024-01-30T07:59:10;5.73;;;2.73;;
18789;SDS011;9523;42.650;23.386;2024-01-30T08:01:37;3.63;;;2.40;;
18789;SDS011;9523;42.650;23.386;2024-01-30T08:04:04;3.87;;;2.63;;
18789;SDS011;9523;42.650;23.386;2024-01-30T08:06:32;4.80;;;3.07;;
18789;SDS011;9523;42.650;23.386;2024-01-30T08:08:59;6.03;;;2.87;;
18789;SDS011;9523;42.650;23.386;2024-01-30T08:11:25;3.83;;;2.47;;
18789;SDS011;9523;42.650;23.386;2024-01-30T08:13:54;5.87;;;2.93;;
18789;SDS011;9523;42.650;23.386;2024-01-30T08:16:20;6.40;;;3.10;;
18789;SDS011;9523;42.650;23.386;2024-01-30T08:18:47;5.87;;;2.50;;
18789;SDS011;9523;42.650;23.386;2024-01-30T08:21:14;3.77;;;2.50;;
18789;SDS011;9523;42.650;23.386;2024-01-30T08:23:42;3.70;;;2.40;;
18789;SDS011;9523;42.650;23.386;2024-01-30T08:26:08;6.93;;;2.70;;
18789;SDS011;9523;42.650;23.386;2024-01-30T08:28:38;5.13;;;3.00;;
18789;SDS011;9523;42.650;23.386;2024-01-30T08:31:05;4.23;;;2.80;;
18789;SDS011;9523;42.650;23.386;2024-01-30T08:33:32;4.73;;;2.90;;
18789;SDS011;9523;42.650;23.386;2024-01-30T08:35:59;5.93;;;3.60;;
18789;SDS011;9523;42.650;23.386;2024-01-30T08:38:25;7.07;;;3.27;;
18789;SDS011;9523;42.650;23.386;2024-01-30T08:40:54;6.63;;;3.40;;
18789;SDS011;9523;42.650;23.386;2024-01-30T08:43:20;9.20;;;4.40;;
18789;SDS011;9523;42.650;23.386;2024-01-30T08:45:47;6.27;;;3.33;;
18789;SDS011;9523;42.650;23.386;2024-01-30T08:48:14;6.17;;;3.93;;
18789;SDS011;9523;42.650;23.386;2024-01-30T08:50:40;10.40;;;3.37;;
18789;SDS011;9523;42.650;23.386;2024-01-30T08:53:07;3.77;;;2.80;;
18789;SDS011;9523;42.650;23.386;2024-01-30T08:55:34;5.00;;;3.33;;
18789;SDS011;9523;42.650;23.386;2024-01-30T08:58:02;7.37;;;3.17;;
18789;SDS011;9523;42.650;23.386;2024-01-30T09:00:30;5.40;;;3.50;;
18789;SDS011;9523;42.650;23.386;2024-01-30T09:02:57;4.40;;;3.07;;
18789;SDS011;9523;42.650;23.386;2024-01-30T09:05:23;4.70;;;3.10;;
18789;SDS011;9523;42.650;23.386;2024-01-30T09:07:50;6.47;;;3.23;;
18789;SDS011;9523;42.650;23.386;2024-01-30T09:10:16;6.60;;;3.23;;
18789;SDS011;9523;42.650;23.386;2024-01-30T09:12:43;6.03;;;2.83;;
18789;SDS011;9523;42.650;23.386;2024-01-30T09:15:11;9.77;;;3.30;;
18789;SDS011;9523;42.650;23.386;2024-01-30T09:17:38;5.67;;;2.63;;
18789;SDS011;9523;42.650;23.386;2024-01-30T09:20:05;4.17;;;2.87;;
18789;SDS011;9523;42.650;23.386;2024-01-30T09:22:32;3.57;;;2.77;;
18789;SDS011;9523;42.650;23.386;2024-01-30T09:24:59;6.27;;;3.40;;
18789;SDS011;9523;42.650;23.386;2024-01-30T09:27:25;10.67;;;3.60;;
18789;SDS011;9523;42.650;23.386;2024-01-30T09:29:52;5.90;;;3.83;;
18789;SDS011;9523;42.650;23.386;2024-01-30T09:32:20;8.73;;;4.20;;
18789;SDS011;9523;42.650;23.386;2024-01-30T09:34:47;7.17;;;4.17;;
18789;SDS011;9523;42.650;23.386;2024-01-30T09:37:14;7.20;;;3.73;;
18789;SDS011;9523;42.650;23.386;2024-01-30T09:39:43;10.10;;;4.03;;
18789;SDS011;9523;42.650;23.386;2024-01-30T09:42:11;15.17;;;8.30;;
18789;SDS011;9523;42.650;23.386;2024-01-30T09:44:38;7.83;;;4.20;;
18789;SDS011;9523;42.650;23.386;2024-01-30T09:47:07;8.77;;;4.50;;
18789;SDS011;9523;42.650;23.386;2024-01-30T09:49:35;7.37;;;3.50;;
18789;SDS011;9523;42.650;23.386;2024-01-30T09:52:03;8.47;;;4.17;;
18789;SDS011;9523;42.650;23.386;2024-01-30T09:54:30;7.27;;;3.80;;
18789;SDS011;9523;42.650;23.386;2024-01-30T09:56:57;5.93;;;3.47;;
18789;SDS011;9523;42.650;23.386;2024-01-30T09:59:24;7.97;;;3.13;;
18789;SDS011;9523;42.650;23.386;2024-01-30T10:01:54;4.83;;;3.13;;
18789;SDS011;9523;42.650;23.386;2024-01-30T10:04:21;6.37;;;3.40;;
18789;SDS011;9523;42.650;23.386;2024-01-30T10:06:50;5.27;;;3.60;;
18789;SDS011;9523;42.650;23.386;2024-01-30T10:09:17;7.70;;;3.50;;
18789;SDS011;9523;42.650;23.386;2024-01-30T10:11:44;6.40;;;3.07;;
18789;SDS011;9523;42.650;23.386;2024-01-30T10:14:11;5.53;;;3.50;;
18789;SDS011;9523;42.650;23.386;2024-01-30T10:16:37;5.17;;;3.37;;
18789;SDS011;9523;42.650;23.386;2024-01-30T10:19:04;5.73;;;3.60;;
18789;SDS011;9523;42.650;23.386;2024-01-30T10:21:31;5.00;;;2.97;;
18789;SDS011;9523;42.650;23.386;2024-01-30T10:23:59;5.17;;;2.87;;
18789;SDS011;9523;42.650;23.386;2024-01-30T10:26:26;5.73;;;3.27;;
18789;SDS011;9523;42.650;23.386;2024-01-30T10:28:54;3.97;;;2.60;;
18789;SDS011;9523;42.650;23.386;2024-01-30T10:31:21;4.27;;;3.10;;
18789;SDS011;9523;42.650;23.386;2024-01-30T10:33:48;3.93;;;2.73;;
18789;SDS011;9523;42.650;23.386;2024-01-30T10:36:14;7.67;;;4.40;;
18789;SDS011;9523;42.650;23.386;2024-01-30T10:38:42;7.37;;;4.03;;
18789;SDS011;9523;42.650;23.386;2024-01-30T10:41:13;3.83;;;2.90;;
18789;SDS011;9523;42.650;23.386;2024-01-30T10:43:41;4.67;;;2.37;;
18789;SDS011;9523;42.650;23.386;2024-01-30T10:46:10;4.53;;;2.70;;
18789;SDS011;9523;42.650;23.386;2024-01-30T10:48:40;4.60;;;2.80;;
18789;SDS011;9523;42.650;23.386;2024-01-30T10:51:09;5.93;;;2.87;;
18789;SDS011;9523;42.650;23.386;2024-01-30T10:53:37;4.27;;;2.97;;
18789;SDS011;9523;42.650;23.386;2024-01-30T10:56:05;3.97;;;2.47;;
18789;SDS011;9523;42.650;23.386;2024-01-30T10:58:34;6.37;;;3.10;;
18789;SDS011;9523;42.650;23.386;2024-01-30T11:01:01;4.63;;;2.80;;
18789;SDS011;9523;42.650;23.386;2024-01-30T11:03:28;6.13;;;2.80;;
18789;SDS011;9523;42.650;23.386;2024-01-30T11:05:58;5.47;;;2.57;;
18789;SDS011;9523;42.650;23.386;2024-01-30T11:08:25;5.03;;;3.10;;
18789;SDS011;9523;42.650;23.386;2024-01-30T11:10:55;3.70;;;2.57;;
18789;SDS011;9523;42.650;23.386;2024-01-30T11:13:22;5.00;;;2.77;;
18789;SDS011;9523;42.650;23.386;2024-01-30T11:15:50;4.47;;;2.70;;
18789;SDS011;9523;42.650;23.386;2024-01-30T11:18:25;5.53;;;2.77;;
18789;SDS011;9523;42.650;23.386;2024-01-30T11:20:52;5.23;;;2.37;;
18789;SDS011;9523;42.650;23.386;2024-01-30T11:23:21;6.13;;;2.87;;
18789;SDS011;9523;42.650;23.386;2024-01-30T11:25:48;4.83;;;2.23;;
18789;SDS011;9523;42.650;23.386;2024-01-30T11:28:15;6.50;;;3.10;;
18789;SDS011;9523;42.650;23.386;2024-01-30T11:30:42;5.40;;;2.57;;
18789;SDS011;9523;42.650;23.386;2024-01-30T11:33:11;4.40;;;2.70;;
18789;SDS011;9523;42.650;23.386;2024-01-30T11:35:38;7.00;;;4.40;;
18789;SDS011;9523;42.650;23.386;2024-01-30T11:38:05;4.00;;;2.30;;
18789;SDS011;9523;42.650;23.386;2024-01-30T11:40:33;4.63;;;2.37;;
18789;SDS011;9523;42.650;23.386;2024-01-30T11:43:00;4.40;;;2.33;;
18789;SDS011;9523;42.650;23.386;2024-01-30T11:45:27;5.17;;;2.60;;
18789;SDS011;9523;42.650;23.386;2024-01-30T11:47:54;5.03;;;2.63;;
18789;SDS011;9523;42.650;23.386;2024-01-30T11:50:23;3.83;;;2.47;;
18789;SDS011;9523;42.650;23.386;2024-01-30T11:52:49;3.63;;;2.57;;
18789;SDS011;9523;42.650;23.386;2024-01-30T11:55:16;4.90;;;2.30;;
18789;SDS011;9523;42.650;23.386;2024-01-30T11:57:43;3.63;;;2.37;;
18789;SDS011;9523;42.650;23.386;2024-01-30T12:00:14;6.13;;;2.70;;
18789;SDS011;9523;42.650;23.386;2024-01-30T12:02:41;4.43;;;2.43;;
18789;SDS011;9523;42.650;23.386;2024-01-30T12:05:08;5.03;;;2.53;;
18789;SDS011;9523;42.650;23.386;2024-01-30T12:07:36;5.00;;;2.67;;
18789;SDS011;9523;42.650;23.386;2024-01-30T12:13:05;3.47;;;1.97;;
18789;SDS011;9523;42.650;23.386;2024-01-30T12:15:32;2.80;;;2.40;;
18789;SDS011;9523;42.650;23.386;2024-01-30T12:18:04;4.93;;;2.90;;
18789;SDS011;9523;42.650;23.386;2024-01-30T12:20:32;5.17;;;3.07;;
18789;SDS011;9523;42.650;23.386;2024-01-30T12:23:00;4.33;;;2.73;;
18789;SDS011;9523;42.650;23.386;2024-01-30T12:25:27;5.20;;;2.83;;
18789;SDS011;9523;42.650;23.386;2024-01-30T12:27:53;3.47;;;2.80;;
18789;SDS011;9523;42.650;23.386;2024-01-30T12:30:20;4.27;;;3.10;;
18789;SDS011;9523;42.650;23.386;2024-01-30T12:32:48;4.33;;;2.70;;
18789;SDS011;9523;42.650;23.386;2024-01-30T12:35:16;6.40;;;2.70;;
18789;SDS011;9523;42.650;23.386;2024-01-30T12:37:43;5.23;;;2.97;;
18789;SDS011;9523;42.650;23.386;2024-01-30T12:40:11;5.43;;;3.10;;
18789;SDS011;9523;42.650;23.386;2024-01-30T12:42:39;4.80;;;2.63;;
18789;SDS011;9523;42.650;23.386;2024-01-30T12:45:24;4.27;;;2.97;;
18789;SDS011;9523;42.650;23.386;2024-01-30T12:47:52;4.53;;;2.93;;
18789;SDS011;9523;42.650;23.386;2024-01-30T12:50:19;4.00;;;3.10;;
18789;SDS011;9523;42.650;23.386;2024-01-30T12:52:46;4.00;;;2.77;;
18789;SDS011;9523;42.650;23.386;2024-01-30T12:55:14;4.37;;;3.00;;
18789;SDS011;9523;42.650;23.386;2024-01-30T12:57:41;5.57;;;3.20;;
18789;SDS011;9523;42.650;23.386;2024-01-30T13:00:08;5.67;;;3.50;;
18789;SDS011;9523;42.650;23.386;2024-01-30T13:02:35;5.20;;;3.07;;
18789;SDS011;9523;42.650;23.386;2024-01-30T13:05:02;4.67;;;3.00;;
18789;SDS011;9523;42.650;23.386;2024-01-30T13:07:29;5.43;;;2.90;;
18789;SDS011;9523;42.650;23.386;2024-01-30T13:09:56;5.37;;;3.00;;
18789;SDS011;9523;42.650;23.386;2024-01-30T13:12:28;4.10;;;2.90;;
18789;SDS011;9523;42.650;23.386;2024-01-30T13:14:55;7.10;;;3.10;;
18789;SDS011;9523;42.650;23.386;2024-01-30T13:17:22;6.40;;;3.53;;
18789;SDS011;9523;42.650;23.386;2024-01-30T13:19:49;5.57;;;3.13;;
18789;SDS011;9523;42.650;23.386;2024-01-30T13:22:15;6.30;;;3.73;;
18789;SDS011;9523;42.650;23.386;2024-01-30T13:24:42;4.90;;;3.20;;
18789;SDS011;9523;42.650;23.386;2024-01-30T13:27:09;4.30;;;3.00;;
18789;SDS011;9523;42.650;23.386;2024-01-30T13:29:39;11.77;;;5.97;;
18789;SDS011;9523;42.650;23.386;2024-01-30T13:32:06;7.37;;;3.80;;
18789;SDS011;9523;42.650;23.386;2024-01-30T13:34:33;6.87;;;3.40;;
18789;SDS011;9523;42.650;23.386;2024-01-30T13:36:59;5.50;;;3.03;;
18789;SDS011;9523;42.650;23.386;2024-01-30T13:39:26;5.93;;;3.20;;
18789;SDS011;9523;42.650;23.386;2024-01-30T13:41:54;4.83;;;3.30;;
18789;SDS011;9523;42.650;23.386;2024-01-30T13:44:20;12.10;;;7.57;;
18789;SDS011;9523;42.650;23.386;2024-01-30T13:46:49;5.93;;;4.00;;
18789;SDS011;9523;42.650;23.386;2024-01-30T13:49:15;6.40;;;3.90;;
18789;SDS011;9523;42.650;23.386;2024-01-30T13:51:42;5.67;;;3.67;;
18789;SDS011;9523;42.650;23.386;2024-01-30T13:54:09;5.90;;;3.33;;
18789;SDS011;9523;42.650;23.386;2024-01-30T13:56:35;7.10;;;3.60;;
18789;SDS011;9523;42.650;23.386;2024-01-30T13:59:02;5.83;;;3.63;;
18789;SDS011;9523;42.650;23.386;2024-01-30T14:01:31;5.10;;;3.33;;
18789;SDS011;9523;42.650;23.386;2024-01-30T14:03:59;5.07;;;3.80;;
18789;SDS011;9523;42.650;23.386;2024-01-30T14:06:25;7.47;;;3.57;;
18789;SDS011;9523;42.650;23.386;2024-01-30T14:08:52;7.27;;;3.70;;
18789;SDS011;9523;42.650;23.386;2024-01-30T14:11:19;5.80;;;3.80;;
18789;SDS011;9523;42.650;23.386;2024-01-30T14:13:46;5.23;;;3.50;;
18789;SDS011;9523;42.650;23.386;2024-01-30T14:16:12;6.80;;;3.67;;
18789;SDS011;9523;42.650;23.386;2024-01-30T14:18:39;4.90;;;3.50;;
18789;SDS011;9523;42.650;23.386;2024-01-30T14:21:08;6.20;;;3.30;;
18789;SDS011;9523;42.650;23.386;2024-01-30T14:23:34;5.53;;;3.60;;
18789;SDS011;9523;42.650;23.386;2024-01-30T14:26:01;6.70;;;3.30;;
18789;SDS011;9523;42.650;23.386;2024-01-30T14:28:28;7.83;;;3.60;;
18789;SDS011;9523;42.650;23.386;2024-01-30T14:30:54;5.27;;;3.30;;
18789;SDS011;9523;42.650;23.386;2024-01-30T14:33:21;12.33;;;7.70;;
18789;SDS011;9523;42.650;23.386;2024-01-30T14:35:48;9.17;;;4.73;;
18789;SDS011;9523;42.650;23.386;2024-01-30T14:38:16;7.70;;;3.80;;
18789;SDS011;9523;42.650;23.386;2024-01-30T14:40:43;6.10;;;3.20;;
18789;SDS011;9523;42.650;23.386;2024-01-30T14:43:09;5.00;;;3.30;;
18789;SDS011;9523;42.650;23.386;2024-01-30T14:45:36;5.33;;;3.77;;
18789;SDS011;9523;42.650;23.386;2024-01-30T14:48:03;7.93;;;3.43;;
18789;SDS011;9523;42.650;23.386;2024-01-30T14:50:29;7.07;;;3.30;;